KBYH/BYH METAR and TAF weather

Enter ICAO airport designator
Station Type Date Time Source
KBYH METAR 2018/07/13 20:50 UTC NOAA

KBYH 132050Z 31003KT 10SM BKN047 36/23 A3004 RMK LAST


Station Type Date Time Source
KBYH Decoded METAR 2018/07/13 20:50 UTC NOAA

Eaker Air Force Base, AR, United States (KBYH) 35-58N 089-57W
Jul 13, 2018 - 04:50 PM EDT / 2018.07.13 2050 UTC
Wind: from the NW (310 degrees) at 3 MPH (3 KT):0
Visibility: 10 mile(s):0
Sky conditions: mostly cloudy
Temperature: 96 F (36 C)
Heat index: 105.4 F (40.8 C):1
Dew Point: 73 F (23 C)
Relative Humidity: 47%
Pressure (altimeter): 30.04 in. Hg (1017 hPa)
ob: KBYH 132050Z 31003KT 10SM BKN047 36/23 A3004 RMK LAST
cycle: 21

Station Type Date Time Source
KBYH TAF UTC NOAA

Error!


Example: see airport list